Estación de Tamelaike INIA

Ultimos registro cada 15 minutos 49
Estación Fecha / Hora Temperatura Humedad Lluvia Velocidad Dirección Radiación Presion
49 Tamelaike INIA 08-05-2026 12:00 -0,2 92 0 0,1 305 126 1014
48 Tamelaike INIA 08-05-2026 11:45 0,5 90,2 0 1,5 314 102 1013
47 Tamelaike INIA 08-05-2026 11:30 1,7 79,5 0 0 0 143 1014
46 Tamelaike INIA 08-05-2026 11:15 1,1 76,4 0 0 206 135 1013
45 Tamelaike INIA 08-05-2026 11:00 0,8 85,7 0 0 0 154 1013
44 Tamelaike INIA 08-05-2026 10:45 0,4 84,6 0 0 0 122 1012
43 Tamelaike INIA 08-05-2026 10:30 -0,5 89,3 0 0 0 125 1012
42 Tamelaike INIA 08-05-2026 10:15 -0,9 89,1 0 0 0 113 1012
41 Tamelaike INIA 08-05-2026 10:00 -1 89 0 0 0 89 1011
40 Tamelaike INIA 08-05-2026 09:45 -1,2 90,5 0 0 0 77 1012
39 Tamelaike INIA 08-05-2026 09:30 -1,6 92,4 0 0 0 64 1012
38 Tamelaike INIA 08-05-2026 09:15 -2 93,3 0 0 302 50 1012
37 Tamelaike INIA 08-05-2026 09:00 -2,6 93 0 0,3 120 37 1011
36 Tamelaike INIA 08-05-2026 08:45 -2,2 90,7 0 1,2 100 25 1011
35 Tamelaike INIA 08-05-2026 08:30 -2,4 92,1 0 0,8 98 13 1011
34 Tamelaike INIA 08-05-2026 08:15 -2,7 92,7 0 0 0 6 1011
33 Tamelaike INIA 08-05-2026 08:00 -3,2 93,1 0 0 0 3 1009
32 Tamelaike INIA 08-05-2026 07:45 -3,5 92,2 0 0 0 0 1010
31 Tamelaike INIA 08-05-2026 07:30 -3,1 90,9 0 0 0 0 1010
30 Tamelaike INIA 08-05-2026 07:15 -3,4 92 0 0 0 0 1010
29 Tamelaike INIA 08-05-2026 07:00 -3,2 90,1 0 0 0 0 1010
28 Tamelaike INIA 08-05-2026 06:45 -3,1 89,9 0 0 0 0 1009
27 Tamelaike INIA 08-05-2026 06:30 -3,2 90,9 0 0 0 0 1009
26 Tamelaike INIA 08-05-2026 06:15 -2,9 88 0 0 0 0 1009
25 Tamelaike INIA 08-05-2026 06:00 -2,6 88,1 0 0 0 0 1009
24 Tamelaike INIA 08-05-2026 05:45 -2,6 90,2 0 0 0 0 1009
23 Tamelaike INIA 08-05-2026 05:30 -3 90,3 0 0 0 0 1008
22 Tamelaike INIA 08-05-2026 05:15 -3 87,8 0 0 0 0 1008
21 Tamelaike INIA 08-05-2026 05:00 -2,9 87,4 0 0 0 0 1008
20 Tamelaike INIA 08-05-2026 04:45 -2,7 87,2 0 0 0 0 1008
19 Tamelaike INIA 08-05-2026 04:30 -2,7 83,3 0 0,1 178 0 1006
18 Tamelaike INIA 08-05-2026 04:15 -3,6 89,9 0 0,6 111 0 1008
17 Tamelaike INIA 08-05-2026 04:00 -2,2 85,6 0 0 0 0 1008
16 Tamelaike INIA 08-05-2026 03:45 -3,1 83,4 0 0,7 120 0 1008
15 Tamelaike INIA 08-05-2026 03:30 -4 89,8 0 2,4 109 0 1007
14 Tamelaike INIA 08-05-2026 03:15 -2,8 85,7 0 0,1 120 0 1007
13 Tamelaike INIA 08-05-2026 03:00 -2,2 83 0 0 0 0 1008
12 Tamelaike INIA 08-05-2026 02:45 -2,3 85,1 0 0 0 0 1006
11 Tamelaike INIA 08-05-2026 02:30 -2,2 84,3 0 0 0 0 1007
10 Tamelaike INIA 08-05-2026 02:15 -2,7 84,9 0 0,2 112 0 1007
9 Tamelaike INIA 08-05-2026 02:00 -2,7 87,6 0 1,9 108 0 1007
8 Tamelaike INIA 08-05-2026 01:45 -2 80,5 0 0,6 112 0 1006
7 Tamelaike INIA 08-05-2026 01:30 -1,7 79,1 0 0 0 0 1006
6 Tamelaike INIA 08-05-2026 01:15 -1,3 81,9 0 0 0 0 1006
5 Tamelaike INIA 08-05-2026 01:00 -1,2 80,6 0 0 0 0 1006
4 Tamelaike INIA 08-05-2026 00:45 -0,9 77,3 0 0 0 0 1006
3 Tamelaike INIA 08-05-2026 00:30 -0,9 77,5 0 0 0 0 1005
2 Tamelaike INIA 08-05-2026 00:15 -0,8 79,3 0 0,2 199 0 1006
1 Tamelaike INIA 08-05-2026 00:00 -0,1 77,9 0 1,1 192 0 1006